Angela, MT (59312)

4:06 PM MDT on October 14, 2019 (GMT -0600)
Wiley | | Change Station
Active Advisory: Lake Wind Advisory

Elev 2628 ft 46.43 °N, 105.89 °W | Updated 13 minutes ago

Partly Cloudy
Partly Cloudy
54 °F
Feels Like 54 °F
N
18
Wind Variable Wind from WNW
Gusts 29 mph

Today
High -- | Low -- °F
--% Chance of Precip.
Yesterday
High -- | Low -- °F
Precip. -- in
Pressure 29.92 in
Visibility 10.0 miles
Clouds Few 9000 ft
Overcast 11000 ft
Dew Point 31 °F
Humidity 41%
Rainfall 0.00 in
Snow Depth Not available.
7:21 AM 6:19 PM
Full, 99% visible
METAR KMLS 142153Z AUTO 29016G25KT 10SM FEW090 OVC110 12/M01 A2988 RMK AO2 PK WND 31031/2055 SLP131 T01221006
Pressure 29.92 in
Visibility 10.0 miles
Clouds Few 9000 ft
Overcast 11000 ft
Dew Point 31 °F
Humidity 41%
Rainfall 0.00 in
Snow Depth Not available.
7:21 AM 6:19 PM
Full, 99% visible
METAR KMLS 142153Z AUTO 29016G25KT 10SM FEW090 OVC110 12/M01 A2988 RMK AO2 PK WND 31031/2055 SLP131 T01221006

Get Your Daily Forecast Email!

Thanks for signing up!

Be on the lookout for a verification email in your inbox.

You'll start receiving severe weather alerts in your inbox..

×

10-Day Weather Forecast

Almanac

Astronomy

Oct. 14, 2019 Rise Set
Actual Time
Civil Twilight
Nautical Twilight
Astronomical Twilight
Moon
Length of Visible Light
Length of Day
Tomorrow will be .
, % of the Moon is Illuminated

Today's Extremes

State Highs State Lows

Community

WunderPhotos

Category 6

Welcome to Category 6. This is the collective home for Weather Underground's featured writeups by Dr. Jeff Masters (right), Bob Henson (left), Chris Burt, and other regular contributors.

Nearby

Air Quality

  Air Quality AQ Index Pollutant
Not available.

Snow Depth

Station Depth Elevation

Earthquake Activity

City Distance Mag. Time & Date
Minimum magnitude displayed is 2.5.

Coastal Water Temperatures

Place Temperature

Stations

Nearby Weather Stations

Station Location Temp. Windchill Dew Point Humidity Wind Precip. Elev Updated Type
                   

Watches & Warnings

Lake Wind Advisory
Issued: 2:35 PM MDT Oct. 14, 2019 – National Weather Service

... Lake Wind Advisory remains in effect until midnight MDT
tonight for Fort Peck Lake...

* what... northwest winds of 25 mph with gusts up to 40 mph.

* Where... Fort Peck Lake.

* When... until midnight MDT tonight.

* Impacts... strong winds and rough waves on area lakes will
create hazardous conditions for small craft.

* Additional details... periods of scattered rain showers will also
be possible this afternoon and evening.

Precautionary/preparedness actions...

Boaters on area lakes should use extra caution since strong winds
and rough waves can overturn small craft.